Pembina, North Dakota
Current Conditions -  °F | °C
As of 7:13 AM on Friday 31 Oct 2014 (Local Time) from KHCO Reporting Station
Clear Clear  
Wind Chill: 12°   Ceiling: Unl
Heat Index: 12°   Visibility: 10mi
Dew Point: 10°   Wind: 0mph
Humidity: 92%   Direction: NA
Pressure: 30.62"   Gusts: NA
Location:  48.97°N, 97.24°W
Report Text: KHCO 311213Z AUTO 00000KT 10SM CLR M11/M12 A3062 RMK AO2
Loading
Personal Weather Stations






























Interactive Weather Map
Tropical Storm Tracking
New forecast layout! Learn more

10-Day Weather Forecast

Advertisements
Track Severe Weather on mobile